Aaron F. Barrett — WDB8606 — position and weather

sailwx.info

Track history (hours):
 
Tides and Currents Weather Stations Pressure Air Temp Water Temp Dewpoint Dewpoint Depression Visibility Wind Speed Wind Dir Waves Ship Positions

Aaron F. Barrett

Owner: Ingram Barge Company LLC, Nashville, TN. More information available from US FCC via Universal Licensing System and Coast Guard Vessel Documentation Center.

Last reported at 2017-Sep-10 17:17 UTC. Time now 2017-Sep-24 16:07 UTC.
Position N 40°51' W 091°03'.
Warning: this ship's position is 13 days out of date.

Length 56 m; draft 3 m.

Type: Tow > 200 m length. MMSI: 366961450.

Date/timePositionNaut miles runAvg speedWind from/ knotsBaromVisibWave heightAir tempDewpointWater temp
2017-Sep-10 17:17N 40°51' W 091°03'1 3.8
2017-Sep-10 17:00N 40°50' W 091°04'2 3.9
2017-Sep-10 16:30N 40°49' W 091°06'2 3.3
2017-Sep-10 16:00N 40°47' W 091°06'9 2.8
2017-Sep-10 12:39N 40°39' W 091°11'  
2017-Sep-07 13:03N 38°53' W 090°32'0 3.4
2017-Sep-07 13:00N 38°53' W 090°32'0 0.6
2017-Sep-07 12:30N 38°53' W 090°32'0 0.1
2017-Sep-07 11:59N 38°53' W 090°32'2 3.1
2017-Sep-07 11:29N 38°55' W 090°31'2 3.6
2017-Sep-07 11:00N 38°56' W 090°30'2 3.3
2017-Sep-07 10:30N 38°57' W 090°28'0 0.4
2017-Sep-07 10:00N 38°57' W 090°28'0 0.0
2017-Sep-07 09:30N 38°57' W 090°28'1 2.0
2017-Sep-07 09:00N 38°57' W 090°27'2 3.6
2017-Sep-07 08:30N 38°58' W 090°24'2 3.7
2017-Sep-07 08:00N 38°57' W 090°22'2 3.8
2017-Sep-07 07:30N 38°56' W 090°20'2 3.7
2017-Sep-07 06:58N 38°55' W 090°18'3 3.8
2017-Sep-07 06:12N 38°55' W 090°14'1 3.5
2017-Sep-07 05:53N 38°54' W 090°13'3 0.1
2017-Sep-05 03:29N 38°55' W 090°16'2 4.0
2017-Sep-05 03:00N 38°55' W 090°19'3 5.4
2017-Sep-05 02:30N 38°57' W 090°22'2 4.3
2017-Sep-05 02:00N 38°58' W 090°24'2 4.6
2017-Sep-05 01:30N 38°57' W 090°27'2 4.7
2017-Sep-05 00:59N 38°56' W 090°30'  
2017-Sep-02 09:07N 41°11' W 091°03'  
Track history (hours):
 
Tides and Currents Weather Stations Pressure Air Temp Water Temp Dewpoint Dewpoint Depression Visibility Wind Speed Wind Dir Waves Ship Positions

Aaron F. Barrett

Owner: Ingram Barge Company LLC, Nashville, TN. More information available from US FCC via Universal Licensing System and Coast Guard Vessel Documentation Center.

Last reported at 2017-Sep-10 17:17 UTC. Time now 2017-Sep-24 16:07 UTC.
Position N 40°51' W 091°03'.
Warning: this ship's position is 13 days out of date.

Length 56 m; draft 3 m.

Type: Tow > 200 m length. MMSI: 366961450.

Date/timePositionNaut miles runAvg speedWind from/ knotsBaromVisibWave heightAir tempDewpointWater temp
2017-Sep-10 17:17N 40°51' W 091°03'1 3.8
2017-Sep-10 17:00N 40°50' W 091°04'2 3.9
2017-Sep-10 16:30N 40°49' W 091°06'2 3.3
2017-Sep-10 16:00N 40°47' W 091°06'9 2.8
2017-Sep-10 12:39N 40°39' W 091°11'  
2017-Sep-07 13:03N 38°53' W 090°32'0 3.4
2017-Sep-07 13:00N 38°53' W 090°32'0 0.6
2017-Sep-07 12:30N 38°53' W 090°32'0 0.1
2017-Sep-07 11:59N 38°53' W 090°32'2 3.1
2017-Sep-07 11:29N 38°55' W 090°31'2 3.6
2017-Sep-07 11:00N 38°56' W 090°30'2 3.3
2017-Sep-07 10:30N 38°57' W 090°28'0 0.4
2017-Sep-07 10:00N 38°57' W 090°28'0 0.0
2017-Sep-07 09:30N 38°57' W 090°28'1 2.0
2017-Sep-07 09:00N 38°57' W 090°27'2 3.6
2017-Sep-07 08:30N 38°58' W 090°24'2 3.7
2017-Sep-07 08:00N 38°57' W 090°22'2 3.8
2017-Sep-07 07:30N 38°56' W 090°20'2 3.7
2017-Sep-07 06:58N 38°55' W 090°18'3 3.8
2017-Sep-07 06:12N 38°55' W 090°14'1 3.5
2017-Sep-07 05:53N 38°54' W 090°13'3 0.1
2017-Sep-05 03:29N 38°55' W 090°16'2 4.0
2017-Sep-05 03:00N 38°55' W 090°19'3 5.4
2017-Sep-05 02:30N 38°57' W 090°22'2 4.3
2017-Sep-05 02:00N 38°58' W 090°24'2 4.6
2017-Sep-05 01:30N 38°57' W 090°27'2 4.7
2017-Sep-05 00:59N 38°56' W 090°30'  
2017-Sep-02 09:07N 41°11' W 091°03'  

Dump ship's entire track history